Terminal Aerodrome Forecast
Issued by NWS

Home | Current Version | Previous Version | Text Only | Print | Product List | Glossary On
Versions: 1 2 3 4 5 6 7 8 9 10 11 12
000
FTUS42 KTAE 281700
TAFVLD
TAF
KVLD 281739Z 2818/2918 19007KT P6SM SCT025 BKN200
     FM290300 19003KT 3SM BR OVC005
     FM291000 18002KT 1SM -SHRA BR OVC003
     FM291600 21004KT 5SM -SHRA BR OVC009=

USA.gov is the U.S. government's official web portal to all federal, state and local government web resources and services.